Time;durP1;ratioP1;P1;durP2;ratioP2;P2;SDS_P1;SDS_P2;PMS_P1;PMS_P2;Temp;Humidity;BMP_temperature;BMP_pressure;BME280_temperature;BME280_humidity;BME280_pressure;Samples;Min_cycle;Max_cycle;Signal;HPM_P1;HPM_P2
2021/08/22 00:02:15;;;;;;;6.47;4.30;;;;;;;;;;5016689;28;20501;-80
2021/08/22 00:04:41;;;;;;;8.02;4.03;;;;;;;;;;5034248;28;20022;-80
2021/08/22 00:07:07;;;;;;;7.68;4.68;;;;;;;;;;5019089;28;20064;-80
2021/08/22 00:09:33;;;;;;;7.43;4.75;;;;;;;;;;5019096;28;20461;-80
2021/08/22 00:11:59;;;;;;;8.23;5.25;;;;;;;;;;5038086;28;20026;-79
2021/08/22 00:14:25;;;;;;;9.65;5.82;;;;;;;;;;5004806;28;20034;-80
2021/08/22 00:16:51;;;;;;;8.30;5.30;;;;;;;;;;5002867;28;20040;-79
2021/08/22 00:19:17;;;;;;;8.60;5.25;;;;;;;;;;5036646;28;20033;-80
2021/08/22 00:21:43;;;;;;;8.10;5.55;;;;;;;;;;5037126;28;20048;-79
2021/08/22 00:24:09;;;;;;;9.93;4.68;;;;;;;;;;5036855;28;20030;-79
2021/08/22 00:26:35;;;;;;;5.75;3.83;;;;;;;;;;5019129;28;20037;-79
2021/08/22 00:29:01;;;;;;;12.40;3.85;;;;;;;;;;5018782;28;20031;-80
2021/08/22 00:31:27;;;;;;;6.75;3.60;;;;;;;;;;5037100;28;20752;-80
2021/08/22 00:33:53;;;;;;;6.03;3.15;;;;;;;;;;5020388;28;20041;-80
2021/08/22 00:36:19;;;;;;;4.00;3.03;;;;;;;;;;5019536;28;20033;-81
2021/08/22 00:38:47;;;;;;;5.38;3.83;;;;;;;;;;5036914;28;20045;-80
2021/08/22 00:41:13;;;;;;;6.55;4.03;;;;;;;;;;5037236;28;20022;-80
2021/08/22 00:43:40;;;;;;;7.03;3.80;;;;;;;;;;5018814;28;20397;-79
2021/08/22 00:46:06;;;;;;;5.68;3.80;;;;;;;;;;5037736;28;20017;-80
2021/08/22 00:48:32;;;;;;;5.80;3.78;;;;;;;;;;5020161;28;20044;-80
2021/08/22 00:50:58;;;;;;;6.75;3.20;;;;;;;;;;5035589;28;20048;-80
2021/08/22 00:53:24;;;;;;;7.65;3.28;;;;;;;;;;5047096;28;20037;-78
2021/08/22 00:55:51;;;;;;;5.65;3.50;;;;;;;;;;5020037;28;20175;-80
2021/08/22 00:58:17;;;;;;;5.10;3.05;;;;;;;;;;5036886;28;20029;-81
2021/08/22 01:00:43;;;;;;;4.18;2.95;;;;;;;;;;5002290;28;20109;-81
2021/08/22 01:03:13;;;;;;;5.55;2.70;;;;;;;;;;5036656;28;20029;-81
2021/08/22 01:05:48;;;;;;;6.43;2.70;;;;;;;;;;5018729;28;20018;-81
2021/08/22 01:08:32;;;;;;;4.05;2.10;;;;;;;;;;5019058;28;20032;-80
2021/08/22 01:11:17;;;;;;;5.45;2.60;;;;;;;;;;5019308;28;20033;-81
2021/08/22 01:13:47;;;;;;;3.88;2.30;;;;;;;;;;5036982;28;20033;-81
2021/08/22 01:16:13;;;;;;;6.35;2.30;;;;;;;;;;5037154;28;20478;-80
2021/08/22 01:18:40;;;;;;;4.10;2.70;;;;;;;;;;5036708;28;20034;-80
2021/08/22 01:21:11;;;;;;;5.25;2.85;;;;;;;;;;5018737;28;20049;-81
2021/08/22 01:23:40;;;;;;;3.60;2.60;;;;;;;;;;5036481;28;20021;-80
2021/08/22 01:26:06;;;;;;;3.85;2.20;;;;;;;;;;5037101;28;20018;-81
2021/08/22 01:28:33;;;;;;;4.68;2.13;;;;;;;;;;5019208;28;20084;-81
2021/08/22 01:31:01;;;;;;;2.67;2.13;;;;;;;;;;5003188;28;20060;-81
2021/08/22 01:33:31;;;;;;;5.05;2.58;;;;;;;;;;5037400;28;20026;-81
2021/08/22 01:35:58;;;;;;;3.70;2.30;;;;;;;;;;5037187;28;20103;-81
2021/08/22 01:38:24;;;;;;;4.93;2.20;;;;;;;;;;5036236;28;20033;-81
2021/08/22 01:40:50;;;;;;;5.65;2.17;;;;;;;;;;5002093;28;20029;-81
2021/08/22 01:43:17;;;;;;;3.33;2.20;;;;;;;;;;5035779;28;20444;-81
2021/08/22 01:45:43;;;;;;;4.53;2.33;;;;;;;;;;5002757;28;20026;-81
2021/08/22 01:48:11;;;;;;;5.13;2.33;;;;;;;;;;5036875;28;20458;-81
2021/08/22 01:50:37;;;;;;;5.30;2.33;;;;;;;;;;5015563;28;20029;-80
2021/08/22 01:53:04;;;;;;;3.58;2.10;;;;;;;;;;4997748;22;20069;-82
2021/08/22 01:55:31;;;;;;;5.40;2.83;;;;;;;;;;5045239;28;20033;-80
2021/08/22 01:57:57;;;;;;;5.45;2.47;;;;;;;;;;5055882;28;20047;-80
2021/08/22 02:00:22;;;;;;;4.82;2.58;;;;;;;;;;5040819;28;20116;-80
2021/08/22 02:03:04;;;;;;;4.22;3.17;;;;;;;;;;5038450;28;20072;-79
2021/08/22 02:05:31;;;;;;;6.68;3.30;;;;;;;;;;5037157;28;20087;-80
2021/08/22 02:07:59;;;;;;;9.55;3.13;;;;;;;;;;5037942;28;20036;-80
2021/08/22 02:10:29;;;;;;;4.72;3.20;;;;;;;;;;5037418;28;20029;-80
2021/08/22 02:12:57;;;;;;;4.95;2.83;;;;;;;;;;5031530;28;20018;-80
2021/08/22 02:15:26;;;;;;;6.05;3.35;;;;;;;;;;5018248;28;20076;-80
2021/08/22 02:18:00;;;;;;;5.28;3.00;;;;;;;;;;5019139;28;20470;-80
2021/08/22 02:20:26;;;;;;;6.53;3.30;;;;;;;;;;5018562;28;20030;-80
2021/08/22 02:22:53;;;;;;;4.60;3.00;;;;;;;;;;5017922;28;20034;-80
2021/08/22 02:25:20;;;;;;;5.70;3.45;;;;;;;;;;5017733;28;20021;-80
2021/08/22 02:27:46;;;;;;;7.55;2.80;;;;;;;;;;5019310;28;20021;-79
2021/08/22 02:30:13;;;;;;;3.40;2.70;;;;;;;;;;5023676;28;20033;-80
2021/08/22 02:32:39;;;;;;;3.38;2.38;;;;;;;;;;5023667;28;20053;-79
2021/08/22 02:35:05;;;;;;;7.35;3.50;;;;;;;;;;5026126;28;20033;-79
2021/08/22 02:37:33;;;;;;;4.18;2.80;;;;;;;;;;5024919;28;20077;-80
2021/08/22 02:39:59;;;;;;;6.68;3.10;;;;;;;;;;5022474;28;20026;-80
2021/08/22 02:42:25;;;;;;;3.03;2.42;;;;;;;;;;5020947;28;20117;-80
2021/08/22 02:44:51;;;;;;;6.38;3.10;;;;;;;;;;5007232;28;20053;-80
2021/08/22 02:47:17;;;;;;;5.00;3.30;;;;;;;;;;5023715;28;20125;-80
2021/08/22 02:49:43;;;;;;;5.63;3.30;;;;;;;;;;5027665;28;20032;-80
2021/08/22 02:52:10;;;;;;;5.93;3.00;;;;;;;;;;5023273;28;20038;-80
2021/08/22 02:54:36;;;;;;;7.13;3.70;;;;;;;;;;5026569;28;20037;-80
2021/08/22 02:57:03;;;;;;;7.25;3.60;;;;;;;;;;5027211;28;20056;-80
2021/08/22 02:59:29;;;;;;;7.50;3.50;;;;;;;;;;5028306;28;20033;-79
2021/08/22 03:01:55;;;;;;;5.40;3.40;;;;;;;;;;5028480;28;20037;-80
2021/08/22 03:04:21;;;;;;;6.90;3.63;;;;;;;;;;5028738;28;20050;-80
2021/08/22 03:06:47;;;;;;;5.10;3.40;;;;;;;;;;5028673;28;20030;-80
2021/08/22 03:09:13;;;;;;;8.93;3.95;;;;;;;;;;5028019;28;20026;-80
2021/08/22 03:11:39;;;;;;;7.10;4.15;;;;;;;;;;5027119;28;20085;-79
2021/08/22 03:14:05;;;;;;;7.40;3.38;;;;;;;;;;5027072;28;20045;-79
2021/08/22 03:16:31;;;;;;;5.47;3.55;;;;;;;;;;5027213;28;20092;-80
2021/08/22 03:18:58;;;;;;;5.65;3.95;;;;;;;;;;5028572;28;20089;-80
2021/08/22 03:21:24;;;;;;;7.90;4.20;;;;;;;;;;5030052;28;20079;-80
2021/08/22 03:23:50;;;;;;;8.10;4.65;;;;;;;;;;5029460;28;20034;-80
2021/08/22 03:26:16;;;;;;;6.07;3.50;;;;;;;;;;5029374;28;20037;-80
2021/08/22 03:28:42;;;;;;;9.77;4.22;;;;;;;;;;5029530;28;20026;-80
2021/08/22 03:31:08;;;;;;;5.63;3.63;;;;;;;;;;5029272;28;20448;-80
2021/08/22 03:33:34;;;;;;;5.60;4.00;;;;;;;;;;5030029;28;20041;-80
2021/08/22 03:36:00;;;;;;;8.05;4.18;;;;;;;;;;5030207;28;20076;-80
2021/08/22 03:38:26;;;;;;;6.50;4.18;;;;;;;;;;5029183;28;20085;-80
2021/08/22 03:40:52;;;;;;;6.60;4.05;;;;;;;;;;5028580;28;20097;-80
2021/08/22 03:43:18;;;;;;;7.68;4.70;;;;;;;;;;5029592;28;20022;-80
2021/08/22 03:45:44;;;;;;;6.72;4.80;;;;;;;;;;5029369;28;20034;-80
2021/08/22 03:48:10;;;;;;;10.82;5.43;;;;;;;;;;5029275;28;20037;-80
2021/08/22 03:50:36;;;;;;;7.53;4.70;;;;;;;;;;5026802;28;20034;-80
2021/08/22 03:53:02;;;;;;;7.35;4.57;;;;;;;;;;5027309;28;20049;-80
2021/08/22 03:55:28;;;;;;;6.80;4.63;;;;;;;;;;5027963;28;20038;-80
2021/08/22 03:57:54;;;;;;;8.77;5.28;;;;;;;;;;5027953;28;20030;-80
2021/08/22 04:00:20;;;;;;;7.43;4.97;;;;;;;;;;5027075;28;20096;-80
2021/08/22 04:02:46;;;;;;;8.80;5.07;;;;;;;;;;5026375;28;20030;-80
2021/08/22 04:05:13;;;;;;;11.45;5.43;;;;;;;;;;5025608;28;20053;-80
2021/08/22 04:07:45;;;;;;;8.68;4.97;;;;;;;;;;5024162;28;20056;-80
2021/08/22 04:10:11;;;;;;;9.18;5.03;;;;;;;;;;5025203;28;20057;-81
2021/08/22 04:12:37;;;;;;;9.70;5.55;;;;;;;;;;5025906;28;20030;-80
2021/08/22 04:15:04;;;;;;;8.57;4.95;;;;;;;;;;5025527;28;20030;-80
2021/08/22 04:17:30;;;;;;;7.75;5.03;;;;;;;;;;5024868;28;20649;-80
2021/08/22 04:19:56;;;;;;;7.75;4.90;;;;;;;;;;5023859;28;20030;-80
2021/08/22 04:22:22;;;;;;;8.88;5.57;;;;;;;;;;5025057;28;20026;-80
2021/08/22 04:24:48;;;;;;;8.25;5.28;;;;;;;;;;5023850;28;20026;-80
2021/08/22 04:27:14;;;;;;;8.50;5.05;;;;;;;;;;5024631;28;20085;-80
2021/08/22 04:29:40;;;;;;;7.32;5.78;;;;;;;;;;5023393;28;20026;-80
2021/08/22 04:32:07;;;;;;;9.48;5.65;;;;;;;;;;5023702;28;20026;-80
2021/08/22 04:34:33;;;;;;;10.20;5.32;;;;;;;;;;5023163;28;20045;-81
2021/08/22 04:36:59;;;;;;;7.75;5.10;;;;;;;;;;5024271;28;20508;-81
2021/08/22 04:39:25;;;;;;;9.32;4.35;;;;;;;;;;5005102;28;20037;-80
2021/08/22 04:41:51;;;;;;;8.40;4.72;;;;;;;;;;5023858;28;20030;-80
2021/08/22 04:44:17;;;;;;;9.73;4.88;;;;;;;;;;5006549;28;20050;-80
2021/08/22 04:46:44;;;;;;;7.97;4.22;;;;;;;;;;5024095;28;20026;-80
2021/08/22 04:49:10;;;;;;;6.57;4.38;;;;;;;;;;5022804;28;20037;-81
2021/08/22 04:51:36;;;;;;;7.38;4.72;;;;;;;;;;5022000;28;20103;-80
2021/08/22 04:54:02;;;;;;;6.03;4.60;;;;;;;;;;5002386;28;20065;-80
2021/08/22 04:56:28;;;;;;;9.40;4.47;;;;;;;;;;5002348;28;20038;-81
2021/08/22 04:58:54;;;;;;;7.72;4.53;;;;;;;;;;4999367;28;20041;-80
2021/08/22 05:01:20;;;;;;;10.90;4.78;;;;;;;;;;4999503;28;20033;-81
2021/08/22 05:03:46;;;;;;;6.07;3.85;;;;;;;;;;4984277;28;20031;-81
2021/08/22 05:06:12;;;;;;;9.98;4.22;;;;;;;;;;5002368;28;20057;-81
2021/08/22 05:08:38;;;;;;;6.65;4.07;;;;;;;;;;5002994;28;20066;-81
2021/08/22 05:11:05;;;;;;;6.68;4.30;;;;;;;;;;4984081;28;20054;-81
2021/08/22 05:13:33;;;;;;;5.75;4.30;;;;;;;;;;5002532;28;20030;-81
2021/08/22 05:15:59;;;;;;;7.13;4.35;;;;;;;;;;5003401;28;20034;-81
2021/08/22 05:18:25;;;;;;;10.15;4.18;;;;;;;;;;5000889;28;20027;-81
2021/08/22 05:20:52;;;;;;;6.32;3.88;;;;;;;;;;5001040;28;20038;-81
2021/08/22 05:23:19;;;;;;;8.23;4.40;;;;;;;;;;5016420;28;20022;-81
2021/08/22 05:25:45;;;;;;;5.63;3.80;;;;;;;;;;5021954;28;20018;-81
2021/08/22 05:28:11;;;;;;;6.50;3.88;;;;;;;;;;4990047;28;20093;-81
2021/08/22 05:30:37;;;;;;;7.05;4.30;;;;;;;;;;5024208;28;20052;-81
2021/08/22 05:33:04;;;;;;;8.07;4.38;;;;;;;;;;5026822;28;20441;-81
2021/08/22 05:35:30;;;;;;;8.38;4.28;;;;;;;;;;5027139;28;20046;-81
2021/08/22 05:37:56;;;;;;;6.63;4.10;;;;;;;;;;5025096;28;20037;-81
2021/08/22 05:40:22;;;;;;;6.40;3.83;;;;;;;;;;5006745;28;20030;-81
2021/08/22 05:42:48;;;;;;;7.18;4.60;;;;;;;;;;5023366;28;20026;-81
2021/08/22 05:45:14;;;;;;;5.43;4.15;;;;;;;;;;5025147;28;20032;-81
2021/08/22 05:47:40;;;;;;;7.38;4.38;;;;;;;;;;5028892;28;20050;-81
2021/08/22 05:50:07;;;;;;;7.53;4.47;;;;;;;;;;5027884;28;20038;-81
2021/08/22 05:52:34;;;;;;;8.52;4.72;;;;;;;;;;5011187;28;20164;-81
2021/08/22 05:55:00;;;;;;;8.07;3.95;;;;;;;;;;5029596;28;20037;-81
2021/08/22 05:57:26;;;;;;;5.90;3.88;;;;;;;;;;4991240;28;20116;-82
2021/08/22 05:59:52;;;;;;;7.43;3.75;;;;;;;;;;5022976;28;20037;-82
2021/08/22 06:02:18;;;;;;;11.00;4.20;;;;;;;;;;5025057;28;20029;-82
2021/08/22 06:04:44;;;;;;;4.93;3.28;;;;;;;;;;5022016;28;20030;-82
2021/08/22 06:07:10;;;;;;;7.95;4.55;;;;;;;;;;4986156;28;20041;-82
2021/08/22 06:09:36;;;;;;;7.47;4.20;;;;;;;;;;5019340;28;20506;-82
2021/08/22 06:12:02;;;;;;;6.85;3.83;;;;;;;;;;5002854;28;20034;-83
2021/08/22 06:14:28;;;;;;;8.07;4.18;;;;;;;;;;5024582;28;20029;-84
2021/08/22 06:16:53;;;;;;;8.45;4.32;;;;;;;;;;5006412;28;20030;-84
2021/08/22 06:19:19;;;;;;;7.25;4.32;;;;;;;;;;5023863;28;20034;-84
2021/08/22 06:21:45;;;;;;;6.82;4.15;;;;;;;;;;5024969;28;20060;-83
2021/08/22 06:24:12;;;;;;;4.40;3.60;;;;;;;;;;5028421;28;20030;-84
2021/08/22 06:26:38;;;;;;;8.45;4.03;;;;;;;;;;5010528;28;20054;-83
2021/08/22 06:29:04;;;;;;;7.50;3.70;;;;;;;;;;5023001;28;20437;-84
2021/08/22 06:31:30;;;;;;;7.28;4.38;;;;;;;;;;5021292;28;20038;-83
2021/08/22 06:33:56;;;;;;;7.88;4.45;;;;;;;;;;4999894;28;20394;-83
2021/08/22 06:36:22;;;;;;;6.85;4.18;;;;;;;;;;5018774;28;20034;-83
2021/08/22 06:38:48;;;;;;;8.00;4.38;;;;;;;;;;5017075;28;20034;-83
2021/08/22 06:41:14;;;;;;;9.95;4.72;;;;;;;;;;5022811;28;20030;-83
2021/08/22 06:43:39;;;;;;;7.15;4.65;;;;;;;;;;5039608;28;20029;-87
2021/08/22 06:46:05;;;;;;;7.38;4.22;;;;;;;;;;5001192;28;20376;-84
2021/08/22 06:48:31;;;;;;;7.50;4.43;;;;;;;;;;5006517;28;20026;-82
2021/08/22 06:50:57;;;;;;;9.02;4.38;;;;;;;;;;4990877;28;20034;-84
2021/08/22 06:53:23;;;;;;;8.57;4.57;;;;;;;;;;5027106;28;20038;-84
2021/08/22 06:55:50;;;;;;;7.20;4.70;;;;;;;;;;4992140;28;20137;-87
2021/08/22 06:58:15;;;;;;;6.72;4.75;;;;;;;;;;5023490;28;20380;-86
2021/08/22 07:00:42;;;;;;;6.57;4.70;;;;;;;;;;4988824;28;20033;-86
2021/08/22 07:03:08;;;;;;;7.75;4.43;;;;;;;;;;5024838;28;20033;-86
2021/08/22 07:05:34;;;;;;;5.65;4.10;;;;;;;;;;4994448;28;20034;-84
2021/08/22 07:08:00;;;;;;;9.82;4.45;;;;;;;;;;5026280;28;20025;-86
2021/08/22 07:10:26;;;;;;;6.05;4.50;;;;;;;;;;5014080;28;20030;-85
2021/08/22 07:12:52;;;;;;;8.55;4.45;;;;;;;;;;5035030;28;20034;-84
2021/08/22 07:15:18;;;;;;;5.88;4.25;;;;;;;;;;5033299;28;20032;-85
2021/08/22 07:17:44;;;;;;;6.00;4.00;;;;;;;;;;5024993;28;20072;-84
2021/08/22 07:20:13;;;;;;;5.60;3.75;;;;;;;;;;5023478;28;20034;-80
2021/08/22 07:22:39;;;;;;;10.50;4.75;;;;;;;;;;5021547;28;20689;-81
2021/08/22 07:25:06;;;;;;;6.22;4.30;;;;;;;;;;5025189;28;20041;-81
2021/08/22 07:27:32;;;;;;;6.78;4.70;;;;;;;;;;5012678;28;20029;-81
2021/08/22 07:29:58;;;;;;;8.50;4.47;;;;;;;;;;5001296;28;20030;-82
2021/08/22 07:32:24;;;;;;;7.68;4.05;;;;;;;;;;5019345;28;20077;-81
2021/08/22 07:34:50;;;;;;;5.80;4.13;;;;;;;;;;5018229;28;20048;-80
2021/08/22 07:37:16;;;;;;;8.43;4.40;;;;;;;;;;5019201;28;20441;-81
2021/08/22 07:39:42;;;;;;;8.05;4.68;;;;;;;;;;5019385;28;20030;-80
2021/08/22 07:42:09;;;;;;;12.23;4.68;;;;;;;;;;5018742;28;20022;-80
2021/08/22 07:44:35;;;;;;;6.85;4.93;;;;;;;;;;5000776;28;20030;-81
2021/08/22 07:47:01;;;;;;;6.78;4.60;;;;;;;;;;5017802;28;20030;-81
2021/08/22 07:49:27;;;;;;;6.03;4.50;;;;;;;;;;5000167;28;20036;-82
2021/08/22 07:51:53;;;;;;;7.35;4.93;;;;;;;;;;5018564;28;20037;-82
2021/08/22 07:54:19;;;;;;;6.65;4.72;;;;;;;;;;5017340;28;20097;-81
2021/08/22 07:56:45;;;;;;;6.38;4.80;;;;;;;;;;5018957;28;20479;-82
2021/08/22 07:59:11;;;;;;;10.18;5.00;;;;;;;;;;4984004;28;20080;-81
2021/08/22 08:01:37;;;;;;;8.27;4.95;;;;;;;;;;5018835;28;20030;-81
2021/08/22 08:04:04;;;;;;;6.55;4.50;;;;;;;;;;5016703;28;20018;-81
2021/08/22 08:06:30;;;;;;;5.80;4.70;;;;;;;;;;5018615;28;20045;-80
2021/08/22 08:08:56;;;;;;;5.80;4.45;;;;;;;;;;5017804;28;20030;-80
2021/08/22 08:11:22;;;;;;;6.03;4.60;;;;;;;;;;5018336;28;20026;-81
2021/08/22 08:13:48;;;;;;;6.10;4.72;;;;;;;;;;5016784;28;20034;-81
2021/08/22 08:16:14;;;;;;;7.50;4.43;;;;;;;;;;5017274;28;20041;-82
2021/08/22 08:18:40;;;;;;;7.05;4.95;;;;;;;;;;5016338;28;20040;-81
2021/08/22 08:21:06;;;;;;;8.85;5.10;;;;;;;;;;5013792;28;20026;-80
2021/08/22 08:23:32;;;;;;;7.43;5.43;;;;;;;;;;5015484;28;20059;-80
2021/08/22 08:25:58;;;;;;;8.60;5.05;;;;;;;;;;5018014;28;20398;-80
2021/08/22 08:28:24;;;;;;;6.85;4.53;;;;;;;;;;5015380;28;20061;-74
2021/08/22 08:30:50;;;;;;;6.43;5.35;;;;;;;;;;5011119;28;20034;-75
2021/08/22 08:33:16;;;;;;;10.30;5.38;;;;;;;;;;5024627;22;20091;-74
2021/08/22 08:35:42;;;;;;;7.40;4.55;;;;;;;;;;5014050;28;20026;-77
2021/08/22 08:38:08;;;;;;;10.50;4.90;;;;;;;;;;4996956;28;20038;-77
2021/08/22 08:40:34;;;;;;;8.52;4.55;;;;;;;;;;5011776;28;20022;-77
2021/08/22 08:43:01;;;;;;;7.55;5.07;;;;;;;;;;5013259;28;20044;-77
2021/08/22 08:45:39;;;;;;;7.63;4.72;;;;;;;;;;4995600;28;20061;-77
2021/08/22 08:48:06;;;;;;;8.82;4.53;;;;;;;;;;5012995;28;20025;-77
2021/08/22 08:50:38;;;;;;;10.23;4.97;;;;;;;;;;5012268;28;20390;-77
2021/08/22 08:53:04;;;;;;;7.70;4.68;;;;;;;;;;5000470;28;20100;-77
2021/08/22 08:55:32;;;;;;;6.35;4.30;;;;;;;;;;4993068;28;20487;-77
2021/08/22 08:57:59;;;;;;;7.63;4.75;;;;;;;;;;4993448;28;20526;-77
2021/08/22 09:00:25;;;;;;;7.05;4.63;;;;;;;;;;4992119;28;20030;-76
2021/08/22 09:02:51;;;;;;;7.72;4.90;;;;;;;;;;4992864;28;20022;-76
2021/08/22 09:05:20;;;;;;;6.53;4.68;;;;;;;;;;4975396;28;20030;-77
2021/08/22 09:07:52;;;;;;;9.35;5.07;;;;;;;;;;4993275;28;20026;-77
2021/08/22 09:10:37;;;;;;;6.05;4.85;;;;;;;;;;4992351;28;20037;-77
2021/08/22 09:13:22;;;;;;;7.70;4.50;;;;;;;;;;4992836;28;20065;-76
2021/08/22 09:15:48;;;;;;;8.13;5.40;;;;;;;;;;4992909;28;20501;-76
2021/08/22 09:18:32;;;;;;;7.90;5.38;;;;;;;;;;4992798;28;20018;-77
2021/08/22 09:21:04;;;;;;;9.25;5.10;;;;;;;;;;4992170;28;20030;-77
2021/08/22 09:23:49;;;;;;;10.90;5.32;;;;;;;;;;4975056;28;20026;-77
2021/08/22 09:26:26;;;;;;;7.95;5.97;;;;;;;;;;4994900;28;20034;-78
2021/08/22 09:28:52;;;;;;;19.83;6.80;;;;;;;;;;4996716;28;20022;-79
2021/08/22 09:31:37;;;;;;;16.42;7.80;;;;;;;;;;4996592;28;20084;-79
2021/08/22 09:34:25;;;;;;;10.05;5.88;;;;;;;;;;4997466;28;20045;-79
2021/08/22 09:37:09;;;;;;;9.75;6.60;;;;;;;;;;4948548;28;20121;-78
2021/08/22 09:39:54;;;;;;;14.20;8.32;;;;;;;;;;4996594;28;20034;-79
2021/08/22 09:42:39;;;;;;;15.68;7.50;;;;;;;;;;4997885;28;20098;-77
2021/08/22 09:45:23;;;;;;;11.55;8.98;;;;;;;;;;4997839;28;20061;-78
2021/08/22 09:47:55;;;;;;;13.02;9.07;;;;;;;;;;4997134;28;20018;-79
2021/08/22 09:50:41;;;;;;;14.73;6.50;;;;;;;;;;4995776;28;20034;-78
2021/08/22 09:53:26;;;;;;;7.30;4.18;;;;;;;;;;4997200;28;20090;-80
2021/08/22 09:56:11;;;;;;;5.95;2.00;;;;;;;;;;4996566;28;20027;-79
2021/08/22 09:58:46;;;;;;;2.13;1.70;;;;;;;;;;4992211;28;20030;-78
2021/08/22 10:01:12;;;;;;;5.15;1.80;;;;;;;;;;4995943;28;20376;-80
2021/08/22 10:03:57;;;;;;;2.30;1.52;;;;;;;;;;4998249;28;20030;-79
2021/08/22 10:06:43;;;;;;;4.43;1.70;;;;;;;;;;5003247;28;20031;-80
2021/08/22 10:09:09;;;;;;;3.78;2.00;;;;;;;;;;5002660;28;20019;-76
2021/08/22 10:11:39;;;;;;;2.80;2.20;;;;;;;;;;5006207;28;20037;-77
2021/08/22 10:14:08;;;;;;;4.07;1.90;;;;;;;;;;4995352;28;20027;-78
2021/08/22 10:16:36;;;;;;;4.85;1.92;;;;;;;;;;4998139;28;20423;-78
2021/08/22 10:19:08;;;;;;;6.70;2.40;;;;;;;;;;4999392;28;20033;-78
2021/08/22 10:21:34;;;;;;;6.43;2.20;;;;;;;;;;4982666;28;20073;-77
2021/08/22 10:24:02;;;;;;;4.05;2.15;;;;;;;;;;4981745;28;20063;-78
2021/08/22 10:26:48;;;;;;;4.63;2.55;;;;;;;;;;4999658;28;20093;-79
2021/08/22 10:29:43;;;;;;;3.83;2.45;;;;;;;;;;4981213;28;20026;-78
2021/08/22 10:32:09;;;;;;;4.00;2.80;;;;;;;;;;4978117;28;20042;-78
2021/08/22 10:34:36;;;;;;;3.85;2.45;;;;;;;;;;4981617;28;20072;-79
2021/08/22 10:37:22;;;;;;;4.38;2.65;;;;;;;;;;4998771;28;20026;-76
2021/08/22 10:39:48;;;;;;;5.15;2.38;;;;;;;;;;4980102;28;20581;-78
2021/08/22 10:42:18;;;;;;;3.75;2.40;;;;;;;;;;4998874;28;20022;-78
2021/08/22 10:44:45;;;;;;;3.70;2.20;;;;;;;;;;4997593;28;20110;-78
2021/08/22 10:47:20;;;;;;;7.57;2.60;;;;;;;;;;4980845;28;20023;-79
2021/08/22 10:49:55;;;;;;;3.72;2.05;;;;;;;;;;4978397;28;20534;-78
2021/08/22 10:52:29;;;;;;;5.60;2.40;;;;;;;;;;4978623;28;20031;-78
2021/08/22 10:55:07;;;;;;;4.93;2.22;;;;;;;;;;4978166;28;20022;-79
2021/08/22 10:57:42;;;;;;;3.58;2.35;;;;;;;;;;4978556;28;20062;-77
2021/08/22 11:00:21;;;;;;;3.53;1.95;;;;;;;;;;4978990;28;20027;-78
2021/08/22 11:02:47;;;;;;;3.53;2.17;;;;;;;;;;4997826;28;20471;-78
2021/08/22 11:05:15;;;;;;;4.32;2.90;;;;;;;;;;4997617;28;20503;-78
2021/08/22 11:07:42;;;;;;;3.78;2.45;;;;;;;;;;4996602;28;20055;-77
2021/08/22 11:10:14;;;;;;;4.95;2.63;;;;;;;;;;4996099;28;20030;-78
2021/08/22 11:12:41;;;;;;;5.10;1.90;;;;;;;;;;4997040;28;20646;-78
2021/08/22 11:15:08;;;;;;;4.65;2.67;;;;;;;;;;4997460;28;20034;-77
2021/08/22 11:17:34;;;;;;;10.32;2.90;;;;;;;;;;4997634;28;20089;-78
2021/08/22 11:20:07;;;;;;;5.50;3.40;;;;;;;;;;4996839;28;20105;-78
2021/08/22 11:22:34;;;;;;;6.75;3.20;;;;;;;;;;4996463;28;20486;-77
2021/08/22 11:25:00;;;;;;;6.80;3.58;;;;;;;;;;4997581;28;20034;-78
2021/08/22 11:27:27;;;;;;;4.97;3.42;;;;;;;;;;4998541;28;20030;-77
2021/08/22 11:29:58;;;;;;;6.22;4.10;;;;;;;;;;4993572;28;20030;-77
2021/08/22 11:32:25;;;;;;;5.55;4.03;;;;;;;;;;4987660;28;20022;-78
2021/08/22 11:34:51;;;;;;;5.13;4.35;;;;;;;;;;4988869;28;20038;-78
2021/08/22 11:37:17;;;;;;;5.60;4.50;;;;;;;;;;4991789;28;20105;-77
2021/08/22 11:39:43;;;;;;;8.73;5.25;;;;;;;;;;4980261;28;20274;-78
2021/08/22 11:42:10;;;;;;;8.80;5.63;;;;;;;;;;4997747;28;20674;-78
2021/08/22 11:44:36;;;;;;;8.13;5.28;;;;;;;;;;4989264;28;20146;-79
2021/08/22 11:47:02;;;;;;;6.85;5.00;;;;;;;;;;4989869;28;20016;-78
2021/08/22 11:49:28;;;;;;;7.68;4.70;;;;;;;;;;4986267;28;20090;-77
2021/08/22 11:51:55;;;;;;;8.25;5.40;;;;;;;;;;4969194;28;20030;-77
2021/08/22 11:54:22;;;;;;;8.40;5.57;;;;;;;;;;4964488;28;20499;-77
2021/08/22 11:56:48;;;;;;;9.18;5.90;;;;;;;;;;4983624;28;20266;-77
2021/08/22 11:59:24;;;;;;;5.97;4.78;;;;;;;;;;4980655;28;20045;-77
2021/08/22 12:01:50;;;;;;;8.88;5.50;;;;;;;;;;4984296;28;20029;-76
2021/08/22 12:04:19;;;;;;;10.05;6.32;;;;;;;;;;4983217;28;20035;-76
2021/08/22 12:06:45;;;;;;;7.75;5.28;;;;;;;;;;4980548;28;20042;-77
2021/08/22 12:09:17;;;;;;;8.15;5.57;;;;;;;;;;4982218;28;20069;-77
2021/08/22 12:11:43;;;;;;;;;;;;;;;;;;4980280;28;20023;-76
2021/08/22 12:14:16;;;;;;;7.13;5.30;;;;;;;;;;4981980;28;19906;-77
2021/08/22 12:16:56;;;;;;;8.40;5.90;;;;;;;;;;4984266;28;20032;-76
2021/08/22 12:19:29;;;;;;;8.20;6.40;;;;;;;;;;4980271;28;20070;-76
2021/08/22 12:21:56;;;;;;;10.90;7.07;;;;;;;;;;4984429;28;20506;-76
2021/08/22 12:24:28;;;;;;;7.60;6.05;;;;;;;;;;4979783;28;20022;-76
2021/08/22 12:26:55;;;;;;;7.90;5.70;;;;;;;;;;4981045;28;20045;-76
2021/08/22 12:29:39;;;;;;;8.30;6.70;;;;;;;;;;4982711;28;20022;-76
2021/08/22 12:32:13;;;;;;;10.02;7.35;;;;;;;;;;4965849;28;20479;-76
2021/08/22 12:34:40;;;;;;;9.05;7.13;;;;;;;;;;4983386;28;20145;-76
2021/08/22 12:37:22;;;;;;;9.88;7.53;;;;;;;;;;4983883;28;20396;-77
2021/08/22 12:40:06;;;;;;;11.60;7.65;;;;;;;;;;4966467;28;20027;-76
2021/08/22 12:42:36;;;;;;;8.48;7.28;;;;;;;;;;4985354;28;20471;-76
2021/08/22 12:45:04;;;;;;;9.13;8.13;;;;;;;;;;4983197;28;20499;-76
2021/08/22 12:47:30;;;;;;;9.77;7.55;;;;;;;;;;4966496;28;20030;-76
2021/08/22 12:49:56;;;;;;;9.45;7.20;;;;;;;;;;4981141;28;20030;-76
2021/08/22 12:52:26;;;;;;;8.05;6.75;;;;;;;;;;4979444;28;20644;-76
2021/08/22 12:54:52;;;;;;;8.93;7.20;;;;;;;;;;4980833;28;20040;-76
2021/08/22 12:57:18;;;;;;;8.93;6.88;;;;;;;;;;4985403;28;20351;-77
2021/08/22 12:59:44;;;;;;;8.60;6.68;;;;;;;;;;4981368;28;20023;-76
2021/08/22 13:02:10;;;;;;;9.30;6.97;;;;;;;;;;4967290;28;20054;-78
2021/08/22 13:04:36;;;;;;;7.53;6.18;;;;;;;;;;4981381;28;20030;-77
2021/08/22 13:07:02;;;;;;;8.88;6.40;;;;;;;;;;4981567;28;20109;-75
2021/08/22 13:09:28;;;;;;;7.55;6.35;;;;;;;;;;4982626;28;20022;-76
2021/08/22 13:11:54;;;;;;;10.63;6.10;;;;;;;;;;5002842;28;20101;-77
2021/08/22 13:14:20;;;;;;;9.05;5.88;;;;;;;;;;4992938;28;20642;-75
2021/08/22 13:16:46;;;;;;;6.30;5.35;;;;;;;;;;4992918;28;20395;-75
2021/08/22 13:19:12;;;;;;;7.15;5.05;;;;;;;;;;4992019;28;20030;-75
2021/08/22 13:21:38;;;;;;;7.57;4.60;;;;;;;;;;4992848;28;20113;-75
2021/08/22 13:24:05;;;;;;;6.03;4.55;;;;;;;;;;4992225;28;20034;-75
2021/08/22 13:26:31;;;;;;;6.70;5.03;;;;;;;;;;4991315;28;20117;-76
2021/08/22 13:28:57;;;;;;;6.85;4.45;;;;;;;;;;4982589;28;20114;-75
2021/08/22 13:31:23;;;;;;;4.90;3.78;;;;;;;;;;4979171;28;20627;-76
2021/08/22 13:33:54;;;;;;;6.70;4.35;;;;;;;;;;4981554;28;20048;-77
2021/08/22 13:36:20;;;;;;;4.93;3.80;;;;;;;;;;4980103;28;20037;-77
2021/08/22 13:38:46;;;;;;;7.35;4.28;;;;;;;;;;4980694;28;20408;-77
2021/08/22 13:41:12;;;;;;;6.90;4.22;;;;;;;;;;4982060;28;20030;-76
2021/08/22 13:43:38;;;;;;;5.10;3.75;;;;;;;;;;4973699;28;20022;-76
2021/08/22 13:46:04;;;;;;;5.18;3.90;;;;;;;;;;4965283;28;20035;-77
2021/08/22 13:48:30;;;;;;;5.72;4.10;;;;;;;;;;4980073;28;20139;-77
2021/08/22 13:50:56;;;;;;;5.05;4.03;;;;;;;;;;4964483;28;20023;-77
2021/08/22 13:53:23;;;;;;;5.63;4.20;;;;;;;;;;4986139;28;20029;-76
2021/08/22 13:55:49;;;;;;;6.80;3.65;;;;;;;;;;4987256;28;20026;-77
2021/08/22 13:58:15;;;;;;;6.30;3.97;;;;;;;;;;4984641;28;20030;-77
2021/08/22 14:00:41;;;;;;;9.68;4.25;;;;;;;;;;4984462;28;20030;-77
2021/08/22 14:03:07;;;;;;;5.43;4.00;;;;;;;;;;4969892;28;20045;-77
2021/08/22 14:05:35;;;;;;;6.85;4.28;;;;;;;;;;4995903;28;20130;-77
2021/08/22 14:08:01;;;;;;;5.68;4.13;;;;;;;;;;4994497;28;20101;-77
2021/08/22 14:10:27;;;;;;;6.45;3.92;;;;;;;;;;4989313;28;20434;-76
2021/08/22 14:12:53;;;;;;;7.15;4.20;;;;;;;;;;4994967;28;20102;-77
2021/08/22 14:15:19;;;;;;;8.25;3.78;;;;;;;;;;4995082;28;20026;-76
2021/08/22 14:17:46;;;;;;;5.45;4.18;;;;;;;;;;4994826;28;20514;-76
2021/08/22 14:20:12;;;;;;;5.90;4.57;;;;;;;;;;4994308;28;20060;-76
2021/08/22 14:22:38;;;;;;;6.32;3.80;;;;;;;;;;4994930;28;20030;-75
2021/08/22 14:25:05;;;;;;;8.43;4.88;;;;;;;;;;4977120;28;20068;-75
2021/08/22 14:27:31;;;;;;;6.63;4.30;;;;;;;;;;4994608;28;20045;-76
2021/08/22 14:29:57;;;;;;;7.22;4.40;;;;;;;;;;4992517;28;20026;-76
2021/08/22 14:32:23;;;;;;;6.18;4.18;;;;;;;;;;4994737;28;20029;-76
2021/08/22 14:34:49;;;;;;;6.55;4.13;;;;;;;;;;4994503;28;20039;-75
2021/08/22 14:37:15;;;;;;;5.85;3.80;;;;;;;;;;4977344;28;20547;-76
2021/08/22 14:39:41;;;;;;;6.25;3.90;;;;;;;;;;4993848;28;20041;-76
2021/08/22 14:42:07;;;;;;;21.55;3.60;;;;;;;;;;4993740;28;20026;-76
2021/08/22 14:44:34;;;;;;;4.60;3.40;;;;;;;;;;4995212;28;20506;-76
2021/08/22 14:47:00;;;;;;;5.80;3.03;;;;;;;;;;4995165;28;20023;-76
2021/08/22 14:49:27;;;;;;;4.68;2.90;;;;;;;;;;4993681;28;20105;-76